sensor_id;sensor_type;location;lat;lon;timestamp;temperature;humidity
16305;DHT22;8261;47.678;-122.174;2022-08-19T00:02:06;31.50;99.90
16305;DHT22;8261;47.678;-122.174;2022-08-19T00:04:37;31.50;99.90
16305;DHT22;8261;47.678;-122.174;2022-08-19T00:07:09;31.40;99.90
16305;DHT22;8261;47.678;-122.174;2022-08-19T00:09:40;31.30;99.90
16305;DHT22;8261;47.678;-122.174;2022-08-19T00:12:12;30.90;99.90
16305;DHT22;8261;47.678;-122.174;2022-08-19T00:14:43;30.80;99.90
16305;DHT22;8261;47.678;-122.174;2022-08-19T00:17:17;30.80;99.90
16305;DHT22;8261;47.678;-122.174;2022-08-19T00:19:50;30.80;99.90
16305;DHT22;8261;47.678;-122.174;2022-08-19T00:22:21;30.80;99.90
16305;DHT22;8261;47.678;-122.174;2022-08-19T00:24:57;30.70;99.90
16305;DHT22;8261;47.678;-122.174;2022-08-19T00:27:30;30.70;99.90
16305;DHT22;8261;47.678;-122.174;2022-08-19T00:30:02;30.60;99.90
16305;DHT22;8261;47.678;-122.174;2022-08-19T00:32:37;30.50;99.90
16305;DHT22;8261;47.678;-122.174;2022-08-19T00:35:10;30.40;99.90
16305;DHT22;8261;47.678;-122.174;2022-08-19T00:37:42;30.50;99.90
16305;DHT22;8261;47.678;-122.174;2022-08-19T00:40:15;30.50;99.90
16305;DHT22;8261;47.678;-122.174;2022-08-19T00:42:49;30.50;99.90
16305;DHT22;8261;47.678;-122.174;2022-08-19T00:45:24;30.60;99.90
16305;DHT22;8261;47.678;-122.174;2022-08-19T00:48:00;30.70;99.90
16305;DHT22;8261;47.678;-122.174;2022-08-19T00:50:43;30.70;99.90
16305;DHT22;8261;47.678;-122.174;2022-08-19T00:53:21;30.70;99.90
16305;DHT22;8261;47.678;-122.174;2022-08-19T00:55:54;30.70;99.90
16305;DHT22;8261;47.678;-122.174;2022-08-19T00:58:29;30.50;99.90
16305;DHT22;8261;47.678;-122.174;2022-08-19T01:01:03;30.50;99.90
16305;DHT22;8261;47.678;-122.174;2022-08-19T01:03:40;30.50;99.90
16305;DHT22;8261;47.678;-122.174;2022-08-19T01:06:25;30.50;99.90
16305;DHT22;8261;47.678;-122.174;2022-08-19T01:08:57;30.50;99.90
16305;DHT22;8261;47.678;-122.174;2022-08-19T01:11:29;30.70;99.90
16305;DHT22;8261;47.678;-122.174;2022-08-19T01:14:01;30.70;99.90
16305;DHT22;8261;47.678;-122.174;2022-08-19T01:16:34;30.90;99.90
16305;DHT22;8261;47.678;-122.174;2022-08-19T01:19:12;30.90;99.90
16305;DHT22;8261;47.678;-122.174;2022-08-19T01:21:50;30.80;99.90
16305;DHT22;8261;47.678;-122.174;2022-08-19T01:24:25;30.70;99.90
16305;DHT22;8261;47.678;-122.174;2022-08-19T01:26:57;30.40;99.90
16305;DHT22;8261;47.678;-122.174;2022-08-19T01:29:29;30.40;99.90
16305;DHT22;8261;47.678;-122.174;2022-08-19T01:32:03;30.40;99.90
16305;DHT22;8261;47.678;-122.174;2022-08-19T01:34:55;30.40;99.90
16305;DHT22;8261;47.678;-122.174;2022-08-19T01:37:27;30.20;99.90
16305;DHT22;8261;47.678;-122.174;2022-08-19T01:40:21;30.10;99.90
16305;DHT22;8261;47.678;-122.174;2022-08-19T01:43:06;30.00;99.90
16305;DHT22;8261;47.678;-122.174;2022-08-19T01:45:38;30.00;99.90
16305;DHT22;8261;47.678;-122.174;2022-08-19T01:48:11;29.90;99.90
16305;DHT22;8261;47.678;-122.174;2022-08-19T01:50:43;29.70;99.90
16305;DHT22;8261;47.678;-122.174;2022-08-19T01:53:15;29.60;99.90
16305;DHT22;8261;47.678;-122.174;2022-08-19T01:55:53;29.50;99.90
16305;DHT22;8261;47.678;-122.174;2022-08-19T01:58:36;29.50;99.90
16305;DHT22;8261;47.678;-122.174;2022-08-19T02:01:09;29.40;99.90
16305;DHT22;8261;47.678;-122.174;2022-08-19T02:03:40;29.30;99.90
16305;DHT22;8261;47.678;-122.174;2022-08-19T02:06:13;29.30;99.90
16305;DHT22;8261;47.678;-122.174;2022-08-19T02:08:53;29.30;99.90
16305;DHT22;8261;47.678;-122.174;2022-08-19T02:11:30;29.40;99.90
16305;DHT22;8261;47.678;-122.174;2022-08-19T02:14:03;29.30;99.90
16305;DHT22;8261;47.678;-122.174;2022-08-19T02:16:35;29.20;99.90
16305;DHT22;8261;47.678;-122.174;2022-08-19T02:19:33;29.20;99.90
16305;DHT22;8261;47.678;-122.174;2022-08-19T02:22:33;29.10;99.90
16305;DHT22;8261;47.678;-122.174;2022-08-19T02:25:32;28.90;99.90
16305;DHT22;8261;47.678;-122.174;2022-08-19T02:28:26;28.80;99.90
16305;DHT22;8261;47.678;-122.174;2022-08-19T02:31:16;28.60;99.90
16305;DHT22;8261;47.678;-122.174;2022-08-19T02:34:03;28.50;99.90
16305;DHT22;8261;47.678;-122.174;2022-08-19T02:45:13;28.10;99.90
16305;DHT22;8261;47.678;-122.174;2022-08-19T02:47:45;27.90;99.90
16305;DHT22;8261;47.678;-122.174;2022-08-19T02:50:38;27.80;99.90
16305;DHT22;8261;47.678;-122.174;2022-08-19T02:53:21;27.80;99.90
16305;DHT22;8261;47.678;-122.174;2022-08-19T02:56:14;27.70;99.90
16305;DHT22;8261;47.678;-122.174;2022-08-19T02:58:47;27.60;99.90
16305;DHT22;8261;47.678;-122.174;2022-08-19T03:01:25;27.60;99.90
16305;DHT22;8261;47.678;-122.174;2022-08-19T03:03:58;27.60;99.90
16305;DHT22;8261;47.678;-122.174;2022-08-19T03:06:46;27.50;99.90
16305;DHT22;8261;47.678;-122.174;2022-08-19T03:09:27;27.50;99.90
16305;DHT22;8261;47.678;-122.174;2022-08-19T03:11:59;27.50;99.90
16305;DHT22;8261;47.678;-122.174;2022-08-19T03:14:38;27.40;99.90
16305;DHT22;8261;47.678;-122.174;2022-08-19T03:17:20;27.40;99.90
16305;DHT22;8261;47.678;-122.174;2022-08-19T03:19:52;27.30;99.90
16305;DHT22;8261;47.678;-122.174;2022-08-19T03:22:24;27.30;99.90
16305;DHT22;8261;47.678;-122.174;2022-08-19T03:24:56;27.20;99.90
16305;DHT22;8261;47.678;-122.174;2022-08-19T03:27:28;27.10;99.90
16305;DHT22;8261;47.678;-122.174;2022-08-19T03:30:11;27.00;99.90
16305;DHT22;8261;47.678;-122.174;2022-08-19T03:32:53;27.00;99.90
16305;DHT22;8261;47.678;-122.174;2022-08-19T03:35:27;26.90;99.90
16305;DHT22;8261;47.678;-122.174;2022-08-19T03:38:00;26.90;99.90
16305;DHT22;8261;47.678;-122.174;2022-08-19T03:40:32;26.80;99.90
16305;DHT22;8261;47.678;-122.174;2022-08-19T03:43:19;26.70;99.90
16305;DHT22;8261;47.678;-122.174;2022-08-19T03:46:18;26.70;99.90
16305;DHT22;8261;47.678;-122.174;2022-08-19T03:49:23;26.60;99.90
16305;DHT22;8261;47.678;-122.174;2022-08-19T03:52:07;26.50;99.90
16305;DHT22;8261;47.678;-122.174;2022-08-19T03:54:39;26.40;99.90
16305;DHT22;8261;47.678;-122.174;2022-08-19T03:57:11;26.40;99.90
16305;DHT22;8261;47.678;-122.174;2022-08-19T03:59:43;26.40;99.90
16305;DHT22;8261;47.678;-122.174;2022-08-19T04:02:19;26.30;99.90
16305;DHT22;8261;47.678;-122.174;2022-08-19T04:04:54;26.30;99.90
16305;DHT22;8261;47.678;-122.174;2022-08-19T04:07:26;26.30;99.90
16305;DHT22;8261;47.678;-122.174;2022-08-19T04:09:57;26.20;99.90
16305;DHT22;8261;47.678;-122.174;2022-08-19T04:12:29;26.20;99.90
16305;DHT22;8261;47.678;-122.174;2022-08-19T04:15:01;26.20;99.90
16305;DHT22;8261;47.678;-122.174;2022-08-19T04:18:03;26.20;99.90
16305;DHT22;8261;47.678;-122.174;2022-08-19T04:21:03;26.20;99.90
16305;DHT22;8261;47.678;-122.174;2022-08-19T04:23:35;26.30;99.90
16305;DHT22;8261;47.678;-122.174;2022-08-19T04:26:14;26.30;99.90
16305;DHT22;8261;47.678;-122.174;2022-08-19T04:28:47;26.30;99.90
16305;DHT22;8261;47.678;-122.174;2022-08-19T04:31:21;26.20;99.90
16305;DHT22;8261;47.678;-122.174;2022-08-19T04:34:05;26.30;99.90
16305;DHT22;8261;47.678;-122.174;2022-08-19T04:36:40;26.20;99.90
16305;DHT22;8261;47.678;-122.174;2022-08-19T04:39:15;26.20;99.90
16305;DHT22;8261;47.678;-122.174;2022-08-19T04:41:47;26.20;99.90
16305;DHT22;8261;47.678;-122.174;2022-08-19T04:44:36;26.20;99.90
16305;DHT22;8261;47.678;-122.174;2022-08-19T04:47:13;26.20;99.90
16305;DHT22;8261;47.678;-122.174;2022-08-19T04:50:05;26.20;99.90
16305;DHT22;8261;47.678;-122.174;2022-08-19T04:52:41;26.20;99.90
16305;DHT22;8261;47.678;-122.174;2022-08-19T04:55:12;26.20;99.90
16305;DHT22;8261;47.678;-122.174;2022-08-19T04:57:43;26.20;99.90
16305;DHT22;8261;47.678;-122.174;2022-08-19T05:00:15;26.20;99.90
16305;DHT22;8261;47.678;-122.174;2022-08-19T05:02:46;26.10;99.90
16305;DHT22;8261;47.678;-122.174;2022-08-19T05:07:55;26.20;99.90
16305;DHT22;8261;47.678;-122.174;2022-08-19T05:10:50;26.10;99.90
16305;DHT22;8261;47.678;-122.174;2022-08-19T05:13:39;26.20;99.90
16305;DHT22;8261;47.678;-122.174;2022-08-19T05:16:14;26.20;99.90
16305;DHT22;8261;47.678;-122.174;2022-08-19T05:18:46;26.10;99.90
16305;DHT22;8261;47.678;-122.174;2022-08-19T05:21:35;26.10;99.90
16305;DHT22;8261;47.678;-122.174;2022-08-19T05:24:25;26.10;99.90
16305;DHT22;8261;47.678;-122.174;2022-08-19T05:26:57;26.10;99.90
16305;DHT22;8261;47.678;-122.174;2022-08-19T05:29:29;26.10;99.90
16305;DHT22;8261;47.678;-122.174;2022-08-19T05:32:04;26.10;99.90
16305;DHT22;8261;47.678;-122.174;2022-08-19T05:34:37;26.10;99.90
16305;DHT22;8261;47.678;-122.174;2022-08-19T05:37:10;26.00;99.90
16305;DHT22;8261;47.678;-122.174;2022-08-19T05:39:44;26.00;99.90
16305;DHT22;8261;47.678;-122.174;2022-08-19T05:42:18;25.90;99.90
16305;DHT22;8261;47.678;-122.174;2022-08-19T05:44:51;25.90;99.90
16305;DHT22;8261;47.678;-122.174;2022-08-19T05:47:25;25.90;99.90
16305;DHT22;8261;47.678;-122.174;2022-08-19T05:49:57;25.90;99.90
16305;DHT22;8261;47.678;-122.174;2022-08-19T05:52:32;25.80;99.90
16305;DHT22;8261;47.678;-122.174;2022-08-19T05:55:19;25.80;99.90
16305;DHT22;8261;47.678;-122.174;2022-08-19T05:57:51;25.80;99.90
16305;DHT22;8261;47.678;-122.174;2022-08-19T06:00:22;25.70;99.90
16305;DHT22;8261;47.678;-122.174;2022-08-19T06:02:53;25.70;99.90
16305;DHT22;8261;47.678;-122.174;2022-08-19T06:05:25;25.70;99.90
16305;DHT22;8261;47.678;-122.174;2022-08-19T06:07:57;25.70;99.90
16305;DHT22;8261;47.678;-122.174;2022-08-19T06:10:33;25.70;99.90
16305;DHT22;8261;47.678;-122.174;2022-08-19T06:13:11;25.60;99.90
16305;DHT22;8261;47.678;-122.174;2022-08-19T06:15:43;25.50;99.90
16305;DHT22;8261;47.678;-122.174;2022-08-19T06:18:16;25.50;99.90
16305;DHT22;8261;47.678;-122.174;2022-08-19T06:20:46;25.50;99.90
16305;DHT22;8261;47.678;-122.174;2022-08-19T06:23:22;25.40;99.90
16305;DHT22;8261;47.678;-122.174;2022-08-19T06:25:56;25.40;99.90
16305;DHT22;8261;47.678;-122.174;2022-08-19T06:28:28;25.40;99.90
16305;DHT22;8261;47.678;-122.174;2022-08-19T06:31:05;25.40;99.90
16305;DHT22;8261;47.678;-122.174;2022-08-19T06:33:36;25.30;99.90
16305;DHT22;8261;47.678;-122.174;2022-08-19T06:36:15;25.30;99.90
16305;DHT22;8261;47.678;-122.174;2022-08-19T06:38:46;25.30;99.90
16305;DHT22;8261;47.678;-122.174;2022-08-19T06:41:20;25.30;99.90
16305;DHT22;8261;47.678;-122.174;2022-08-19T06:43:51;25.30;99.90
16305;DHT22;8261;47.678;-122.174;2022-08-19T06:46:23;25.30;99.90
16305;DHT22;8261;47.678;-122.174;2022-08-19T06:48:55;25.20;99.90
16305;DHT22;8261;47.678;-122.174;2022-08-19T06:51:28;25.20;99.90
16305;DHT22;8261;47.678;-122.174;2022-08-19T06:54:00;25.20;99.90
16305;DHT22;8261;47.678;-122.174;2022-08-19T06:56:50;25.20;99.90
16305;DHT22;8261;47.678;-122.174;2022-08-19T06:59:23;25.20;99.90
16305;DHT22;8261;47.678;-122.174;2022-08-19T07:01:57;25.20;99.90
16305;DHT22;8261;47.678;-122.174;2022-08-19T07:04:34;25.20;99.90
16305;DHT22;8261;47.678;-122.174;2022-08-19T07:07:10;25.20;99.90
16305;DHT22;8261;47.678;-122.174;2022-08-19T07:09:49;25.10;99.90
16305;DHT22;8261;47.678;-122.174;2022-08-19T07:12:30;25.20;99.90
16305;DHT22;8261;47.678;-122.174;2022-08-19T07:15:06;25.10;99.90
16305;DHT22;8261;47.678;-122.174;2022-08-19T07:17:39;25.00;99.90
16305;DHT22;8261;47.678;-122.174;2022-08-19T07:20:14;25.10;99.90
16305;DHT22;8261;47.678;-122.174;2022-08-19T07:22:46;25.10;99.90
16305;DHT22;8261;47.678;-122.174;2022-08-19T07:25:18;25.00;99.90
16305;DHT22;8261;47.678;-122.174;2022-08-19T07:28:03;25.00;99.90
16305;DHT22;8261;47.678;-122.174;2022-08-19T07:30:51;25.00;99.90
16305;DHT22;8261;47.678;-122.174;2022-08-19T07:33:29;24.90;99.90
16305;DHT22;8261;47.678;-122.174;2022-08-19T07:36:03;24.90;99.90
16305;DHT22;8261;47.678;-122.174;2022-08-19T07:38:35;24.90;99.90
16305;DHT22;8261;47.678;-122.174;2022-08-19T07:41:06;24.90;99.90
16305;DHT22;8261;47.678;-122.174;2022-08-19T07:43:54;24.90;99.90
16305;DHT22;8261;47.678;-122.174;2022-08-19T07:46:25;24.90;99.90
16305;DHT22;8261;47.678;-122.174;2022-08-19T07:48:56;24.90;99.90
16305;DHT22;8261;47.678;-122.174;2022-08-19T07:51:29;24.80;99.90
16305;DHT22;8261;47.678;-122.174;2022-08-19T07:54:04;24.80;99.90
16305;DHT22;8261;47.678;-122.174;2022-08-19T07:56:36;24.80;99.90
16305;DHT22;8261;47.678;-122.174;2022-08-19T07:59:10;24.80;99.90
16305;DHT22;8261;47.678;-122.174;2022-08-19T08:01:41;24.80;99.90
16305;DHT22;8261;47.678;-122.174;2022-08-19T08:04:12;24.80;99.90
16305;DHT22;8261;47.678;-122.174;2022-08-19T08:07:00;24.80;99.90
16305;DHT22;8261;47.678;-122.174;2022-08-19T08:09:48;24.80;99.90
16305;DHT22;8261;47.678;-122.174;2022-08-19T08:12:29;24.70;99.90
16305;DHT22;8261;47.678;-122.174;2022-08-19T08:15:08;24.70;99.90
16305;DHT22;8261;47.678;-122.174;2022-08-19T08:17:44;24.70;99.90
16305;DHT22;8261;47.678;-122.174;2022-08-19T08:20:19;24.80;99.90
16305;DHT22;8261;47.678;-122.174;2022-08-19T08:22:51;24.80;99.90
16305;DHT22;8261;47.678;-122.174;2022-08-19T08:25:38;24.80;99.90
16305;DHT22;8261;47.678;-122.174;2022-08-19T08:28:10;24.80;99.90
16305;DHT22;8261;47.678;-122.174;2022-08-19T08:30:47;24.80;99.90
16305;DHT22;8261;47.678;-122.174;2022-08-19T08:33:20;24.70;99.90
16305;DHT22;8261;47.678;-122.174;2022-08-19T08:36:01;24.70;99.90
16305;DHT22;8261;47.678;-122.174;2022-08-19T08:38:33;24.70;99.90
16305;DHT22;8261;47.678;-122.174;2022-08-19T08:41:15;24.70;99.90
16305;DHT22;8261;47.678;-122.174;2022-08-19T08:43:52;24.70;99.90
16305;DHT22;8261;47.678;-122.174;2022-08-19T08:46:29;24.80;99.90
16305;DHT22;8261;47.678;-122.174;2022-08-19T08:49:16;24.70;99.90
16305;DHT22;8261;47.678;-122.174;2022-08-19T08:51:52;24.80;99.90
16305;DHT22;8261;47.678;-122.174;2022-08-19T08:54:32;24.70;99.90
16305;DHT22;8261;47.678;-122.174;2022-08-19T08:57:07;24.70;99.90
16305;DHT22;8261;47.678;-122.174;2022-08-19T08:59:42;24.60;99.90
16305;DHT22;8261;47.678;-122.174;2022-08-19T09:02:19;24.60;99.90
16305;DHT22;8261;47.678;-122.174;2022-08-19T09:04:50;24.60;99.90
16305;DHT22;8261;47.678;-122.174;2022-08-19T09:07:34;24.50;99.90
16305;DHT22;8261;47.678;-122.174;2022-08-19T09:10:19;24.60;99.90
16305;DHT22;8261;47.678;-122.174;2022-08-19T09:12:59;24.50;99.90
16305;DHT22;8261;47.678;-122.174;2022-08-19T09:15:40;24.50;99.90
16305;DHT22;8261;47.678;-122.174;2022-08-19T09:18:16;24.40;99.90
16305;DHT22;8261;47.678;-122.174;2022-08-19T09:20:48;24.40;99.90
16305;DHT22;8261;47.678;-122.174;2022-08-19T09:23:19;24.40;99.90
16305;DHT22;8261;47.678;-122.174;2022-08-19T09:25:54;24.40;99.90
16305;DHT22;8261;47.678;-122.174;2022-08-19T09:28:25;24.30;99.90
16305;DHT22;8261;47.678;-122.174;2022-08-19T09:30:59;24.20;99.90
16305;DHT22;8261;47.678;-122.174;2022-08-19T09:33:32;24.30;99.90
16305;DHT22;8261;47.678;-122.174;2022-08-19T09:36:05;24.30;99.90
16305;DHT22;8261;47.678;-122.174;2022-08-19T09:38:37;24.40;99.90
16305;DHT22;8261;47.678;-122.174;2022-08-19T09:41:13;24.40;99.90
16305;DHT22;8261;47.678;-122.174;2022-08-19T09:43:46;24.30;99.90
16305;DHT22;8261;47.678;-122.174;2022-08-19T09:46:21;24.20;99.90
16305;DHT22;8261;47.678;-122.174;2022-08-19T09:48:56;24.20;99.90
16305;DHT22;8261;47.678;-122.174;2022-08-19T09:51:33;24.20;99.90
16305;DHT22;8261;47.678;-122.174;2022-08-19T09:54:06;24.20;99.90
16305;DHT22;8261;47.678;-122.174;2022-08-19T09:56:38;24.20;99.90
16305;DHT22;8261;47.678;-122.174;2022-08-19T09:59:10;24.20;99.90
16305;DHT22;8261;47.678;-122.174;2022-08-19T10:01:42;24.20;99.90
16305;DHT22;8261;47.678;-122.174;2022-08-19T10:04:16;24.20;99.90
16305;DHT22;8261;47.678;-122.174;2022-08-19T10:06:49;24.20;99.90
16305;DHT22;8261;47.678;-122.174;2022-08-19T10:09:22;24.20;99.90
16305;DHT22;8261;47.678;-122.174;2022-08-19T10:12:02;24.20;99.90
16305;DHT22;8261;47.678;-122.174;2022-08-19T10:14:38;24.20;99.90
16305;DHT22;8261;47.678;-122.174;2022-08-19T10:17:09;24.20;99.90
16305;DHT22;8261;47.678;-122.174;2022-08-19T10:19:50;24.20;99.90
16305;DHT22;8261;47.678;-122.174;2022-08-19T10:22:23;24.10;99.90
16305;DHT22;8261;47.678;-122.174;2022-08-19T10:24:58;24.10;99.90
16305;DHT22;8261;47.678;-122.174;2022-08-19T10:27:30;24.10;99.90
16305;DHT22;8261;47.678;-122.174;2022-08-19T10:30:03;24.00;99.90
16305;DHT22;8261;47.678;-122.174;2022-08-19T10:32:36;24.00;99.90
16305;DHT22;8261;47.678;-122.174;2022-08-19T10:35:16;24.00;99.90
16305;DHT22;8261;47.678;-122.174;2022-08-19T10:37:49;23.90;99.90
16305;DHT22;8261;47.678;-122.174;2022-08-19T10:40:27;23.80;99.90
16305;DHT22;8261;47.678;-122.174;2022-08-19T10:42:58;23.80;99.90
16305;DHT22;8261;47.678;-122.174;2022-08-19T10:45:30;23.70;99.90
16305;DHT22;8261;47.678;-122.174;2022-08-19T10:48:02;23.70;99.90
16305;DHT22;8261;47.678;-122.174;2022-08-19T10:50:41;23.70;99.90
16305;DHT22;8261;47.678;-122.174;2022-08-19T10:53:28;23.70;99.90
16305;DHT22;8261;47.678;-122.174;2022-08-19T10:56:02;23.70;99.90
16305;DHT22;8261;47.678;-122.174;2022-08-19T10:58:50;23.60;99.90
16305;DHT22;8261;47.678;-122.174;2022-08-19T11:01:21;23.60;99.90
16305;DHT22;8261;47.678;-122.174;2022-08-19T11:03:53;23.60;99.90
16305;DHT22;8261;47.678;-122.174;2022-08-19T11:06:28;23.50;99.90
16305;DHT22;8261;47.678;-122.174;2022-08-19T11:09:00;23.50;99.90
16305;DHT22;8261;47.678;-122.174;2022-08-19T11:11:31;23.50;99.90
16305;DHT22;8261;47.678;-122.174;2022-08-19T11:14:10;23.50;99.90
16305;DHT22;8261;47.678;-122.174;2022-08-19T11:16:43;23.40;99.90
16305;DHT22;8261;47.678;-122.174;2022-08-19T11:19:14;23.40;99.90
16305;DHT22;8261;47.678;-122.174;2022-08-19T11:21:50;23.40;99.90
16305;DHT22;8261;47.678;-122.174;2022-08-19T11:24:27;23.40;99.90
16305;DHT22;8261;47.678;-122.174;2022-08-19T11:27:04;23.30;99.90
16305;DHT22;8261;47.678;-122.174;2022-08-19T11:29:35;23.30;99.90
16305;DHT22;8261;47.678;-122.174;2022-08-19T11:32:08;23.30;99.90
16305;DHT22;8261;47.678;-122.174;2022-08-19T11:34:42;23.20;99.90
16305;DHT22;8261;47.678;-122.174;2022-08-19T11:37:15;23.20;99.90
16305;DHT22;8261;47.678;-122.174;2022-08-19T11:39:47;23.20;99.90
16305;DHT22;8261;47.678;-122.174;2022-08-19T11:42:20;23.10;99.90
16305;DHT22;8261;47.678;-122.174;2022-08-19T11:45:23;23.10;99.90
16305;DHT22;8261;47.678;-122.174;2022-08-19T11:47:56;23.10;99.90
16305;DHT22;8261;47.678;-122.174;2022-08-19T11:50:28;23.10;99.90
16305;DHT22;8261;47.678;-122.174;2022-08-19T11:53:02;23.10;99.90
16305;DHT22;8261;47.678;-122.174;2022-08-19T11:55:38;23.00;99.90
16305;DHT22;8261;47.678;-122.174;2022-08-19T11:58:11;23.00;99.90
16305;DHT22;8261;47.678;-122.174;2022-08-19T12:00:45;22.90;99.90
16305;DHT22;8261;47.678;-122.174;2022-08-19T12:03:17;22.90;99.90
16305;DHT22;8261;47.678;-122.174;2022-08-19T12:05:50;22.80;99.90
16305;DHT22;8261;47.678;-122.174;2022-08-19T12:08:23;22.80;99.90
16305;DHT22;8261;47.678;-122.174;2022-08-19T12:10:55;22.90;99.90
16305;DHT22;8261;47.678;-122.174;2022-08-19T12:13:30;22.80;99.90
16305;DHT22;8261;47.678;-122.174;2022-08-19T12:16:07;22.80;99.90
16305;DHT22;8261;47.678;-122.174;2022-08-19T12:18:40;22.80;99.90
16305;DHT22;8261;47.678;-122.174;2022-08-19T12:21:12;22.80;99.90
16305;DHT22;8261;47.678;-122.174;2022-08-19T12:23:46;22.80;99.90
16305;DHT22;8261;47.678;-122.174;2022-08-19T12:26:23;22.70;99.90
16305;DHT22;8261;47.678;-122.174;2022-08-19T12:28:54;22.80;99.90
16305;DHT22;8261;47.678;-122.174;2022-08-19T12:31:28;22.80;99.90
16305;DHT22;8261;47.678;-122.174;2022-08-19T12:34:01;22.80;99.90
16305;DHT22;8261;47.678;-122.174;2022-08-19T12:36:32;22.80;99.90
16305;DHT22;8261;47.678;-122.174;2022-08-19T12:39:07;22.80;99.90
16305;DHT22;8261;47.678;-122.174;2022-08-19T12:41:40;22.80;99.90
16305;DHT22;8261;47.678;-122.174;2022-08-19T12:44:22;22.80;99.90
16305;DHT22;8261;47.678;-122.174;2022-08-19T12:46:59;22.80;99.90
16305;DHT22;8261;47.678;-122.174;2022-08-19T12:49:33;22.70;99.90
16305;DHT22;8261;47.678;-122.174;2022-08-19T12:52:23;22.80;99.90
16305;DHT22;8261;47.678;-122.174;2022-08-19T12:54:57;22.70;99.90
16305;DHT22;8261;47.678;-122.174;2022-08-19T12:57:30;22.70;99.90
16305;DHT22;8261;47.678;-122.174;2022-08-19T13:00:05;22.70;99.90
16305;DHT22;8261;47.678;-122.174;2022-08-19T13:02:39;22.70;99.90
16305;DHT22;8261;47.678;-122.174;2022-08-19T13:05:15;22.60;99.90
16305;DHT22;8261;47.678;-122.174;2022-08-19T13:07:49;22.50;99.90
16305;DHT22;8261;47.678;-122.174;2022-08-19T13:10:27;22.30;99.90
16305;DHT22;8261;47.678;-122.174;2022-08-19T13:13:01;22.20;99.90
16305;DHT22;8261;47.678;-122.174;2022-08-19T13:15:36;22.20;99.90
16305;DHT22;8261;47.678;-122.174;2022-08-19T13:18:09;22.20;99.90
16305;DHT22;8261;47.678;-122.174;2022-08-19T13:20:41;22.00;99.90
16305;DHT22;8261;47.678;-122.174;2022-08-19T13:23:19;21.90;99.90
16305;DHT22;8261;47.678;-122.174;2022-08-19T13:26:00;21.90;99.90
16305;DHT22;8261;47.678;-122.174;2022-08-19T13:28:31;21.80;99.90
16305;DHT22;8261;47.678;-122.174;2022-08-19T13:31:16;21.80;99.90
16305;DHT22;8261;47.678;-122.174;2022-08-19T13:34:05;21.70;99.90
16305;DHT22;8261;47.678;-122.174;2022-08-19T13:36:38;21.60;99.90
16305;DHT22;8261;47.678;-122.174;2022-08-19T13:39:10;21.50;99.90
16305;DHT22;8261;47.678;-122.174;2022-08-19T13:41:46;21.40;99.90
16305;DHT22;8261;47.678;-122.174;2022-08-19T13:44:19;21.40;99.90
16305;DHT22;8261;47.678;-122.174;2022-08-19T13:46:50;21.40;99.90
16305;DHT22;8261;47.678;-122.174;2022-08-19T13:49:22;21.30;99.90
16305;DHT22;8261;47.678;-122.174;2022-08-19T13:51:53;21.20;99.90
16305;DHT22;8261;47.678;-122.174;2022-08-19T13:54:25;21.00;99.90
16305;DHT22;8261;47.678;-122.174;2022-08-19T13:56:59;20.90;99.90
16305;DHT22;8261;47.678;-122.174;2022-08-19T13:59:31;20.90;99.90
16305;DHT22;8261;47.678;-122.174;2022-08-19T14:02:03;20.90;99.90
16305;DHT22;8261;47.678;-122.174;2022-08-19T14:04:34;20.90;99.90
16305;DHT22;8261;47.678;-122.174;2022-08-19T14:07:06;20.80;99.90
16305;DHT22;8261;47.678;-122.174;2022-08-19T14:09:38;20.80;99.90
16305;DHT22;8261;47.678;-122.174;2022-08-19T14:12:17;20.50;99.90
16305;DHT22;8261;47.678;-122.174;2022-08-19T14:14:55;20.20;99.90
16305;DHT22;8261;47.678;-122.174;2022-08-19T14:17:27;20.00;99.90
16305;DHT22;8261;47.678;-122.174;2022-08-19T14:19:59;20.00;99.90
16305;DHT22;8261;47.678;-122.174;2022-08-19T14:22:40;19.90;99.90
16305;DHT22;8261;47.678;-122.174;2022-08-19T14:25:14;19.90;99.90
16305;DHT22;8261;47.678;-122.174;2022-08-19T14:27:48;19.90;99.90
16305;DHT22;8261;47.678;-122.174;2022-08-19T14:30:23;19.90;99.90
16305;DHT22;8261;47.678;-122.174;2022-08-19T14:32:59;19.90;99.90
16305;DHT22;8261;47.678;-122.174;2022-08-19T14:35:31;19.80;99.90
16305;DHT22;8261;47.678;-122.174;2022-08-19T14:38:04;19.80;99.90
16305;DHT22;8261;47.678;-122.174;2022-08-19T14:40:35;19.70;99.90
16305;DHT22;8261;47.678;-122.174;2022-08-19T14:43:08;19.80;99.90
16305;DHT22;8261;47.678;-122.174;2022-08-19T14:45:40;19.80;99.90
16305;DHT22;8261;47.678;-122.174;2022-08-19T14:48:11;19.80;99.90
16305;DHT22;8261;47.678;-122.174;2022-08-19T14:50:47;19.80;99.90
16305;DHT22;8261;47.678;-122.174;2022-08-19T14:53:18;19.90;99.90
16305;DHT22;8261;47.678;-122.174;2022-08-19T14:55:50;20.00;99.90
16305;DHT22;8261;47.678;-122.174;2022-08-19T14:58:24;20.00;99.90
16305;DHT22;8261;47.678;-122.174;2022-08-19T15:00:58;19.90;99.90
16305;DHT22;8261;47.678;-122.174;2022-08-19T15:03:32;19.80;99.90
16305;DHT22;8261;47.678;-122.174;2022-08-19T15:06:13;19.70;99.90
16305;DHT22;8261;47.678;-122.174;2022-08-19T15:09:10;19.60;99.90
16305;DHT22;8261;47.678;-122.174;2022-08-19T15:11:50;19.70;99.90
16305;DHT22;8261;47.678;-122.174;2022-08-19T15:14:39;19.80;99.90
16305;DHT22;8261;47.678;-122.174;2022-08-19T15:17:20;19.70;99.90
16305;DHT22;8261;47.678;-122.174;2022-08-19T15:20:19;19.80;99.90
16305;DHT22;8261;47.678;-122.174;2022-08-19T15:23:07;19.80;99.90
16305;DHT22;8261;47.678;-122.174;2022-08-19T15:25:43;19.80;99.90
16305;DHT22;8261;47.678;-122.174;2022-08-19T15:28:15;19.70;99.90
16305;DHT22;8261;47.678;-122.174;2022-08-19T15:33:58;19.70;99.90
16305;DHT22;8261;47.678;-122.174;2022-08-19T15:36:41;19.60;99.90
16305;DHT22;8261;47.678;-122.174;2022-08-19T15:39:17;19.70;99.90
16305;DHT22;8261;47.678;-122.174;2022-08-19T15:41:52;19.70;99.90
16305;DHT22;8261;47.678;-122.174;2022-08-19T15:44:24;19.80;99.90
16305;DHT22;8261;47.678;-122.174;2022-08-19T15:47:21;19.70;99.90
16305;DHT22;8261;47.678;-122.174;2022-08-19T15:50:07;19.80;99.90
16305;DHT22;8261;47.678;-122.174;2022-08-19T15:52:48;19.90;99.90
16305;DHT22;8261;47.678;-122.174;2022-08-19T15:55:44;19.80;99.90
16305;DHT22;8261;47.678;-122.174;2022-08-19T15:58:17;19.60;99.90
16305;DHT22;8261;47.678;-122.174;2022-08-19T16:01:06;19.60;99.90
16305;DHT22;8261;47.678;-122.174;2022-08-19T16:03:55;19.60;99.90
16305;DHT22;8261;47.678;-122.174;2022-08-19T16:06:51;19.70;99.90
16305;DHT22;8261;47.678;-122.174;2022-08-19T16:12:27;19.90;99.90
16305;DHT22;8261;47.678;-122.174;2022-08-19T16:14:59;20.00;99.90
16305;DHT22;8261;47.678;-122.174;2022-08-19T16:17:32;20.10;99.90